createdAt,value
2019-04-11T00:02:27.305Z,0.40
2019-04-11T00:04:56.465Z,0.50
2019-04-11T00:07:24.951Z,0.50
2019-04-11T00:09:53.103Z,0.30
2019-04-11T00:12:22.808Z,0.60
2019-04-11T00:14:51.814Z,0.60
2019-04-11T00:17:21.629Z,0.60
2019-04-11T00:19:49.867Z,0.60
2019-04-11T00:22:17.941Z,0.72
2019-04-11T00:24:47.126Z,0.80
2019-04-11T00:27:15.360Z,0.60
2019-04-11T00:29:43.446Z,0.50
2019-04-11T00:32:12.283Z,0.60
2019-04-11T00:34:40.499Z,0.35
2019-04-11T00:37:08.702Z,0.60
2019-04-11T00:39:37.553Z,0.65
2019-04-11T00:42:06.186Z,0.50
2019-04-11T00:44:34.732Z,0.42
2019-04-11T00:47:03.015Z,0.33
2019-04-11T00:49:31.178Z,0.33
2019-04-11T00:52:00.309Z,0.40
2019-04-11T00:54:29.011Z,0.40
2019-04-11T00:56:57.397Z,0.50
2019-04-11T00:59:26.680Z,0.40
2019-04-11T01:01:54.901Z,0.50
2019-04-11T01:04:23.468Z,0.60
2019-04-11T01:06:52.237Z,0.30
2019-04-11T01:09:20.491Z,0.50
2019-04-11T01:11:48.549Z,0.40
2019-04-11T01:14:17.405Z,0.50
2019-04-11T01:16:48.474Z,0.50
2019-04-11T01:19:16.788Z,0.40
2019-04-11T01:21:44.908Z,0.62
2019-04-11T01:24:13.145Z,0.40
2019-04-11T01:26:41.384Z,0.40
2019-04-11T01:29:09.654Z,0.50
2019-04-11T01:31:39.907Z,0.57
2019-04-11T01:34:08.592Z,0.53
2019-04-11T01:36:37.402Z,0.37
2019-04-11T01:39:27.936Z,0.40
2019-04-11T01:41:56.185Z,0.40
2019-04-11T01:44:24.870Z,0.30
2019-04-11T01:46:54.181Z,0.50
2019-04-11T01:49:28.069Z,0.40
2019-04-11T01:51:56.407Z,0.30
2019-04-11T01:54:25.799Z,0.30
2019-04-11T01:56:54.049Z,0.40
2019-04-11T01:59:22.114Z,0.40
2019-04-11T02:02:09.555Z,0.53
2019-04-11T02:04:48.632Z,0.42
2019-04-11T02:07:16.728Z,0.40
2019-04-11T02:09:44.880Z,0.40
2019-04-11T02:12:14.099Z,0.40
2019-04-11T02:14:42.335Z,0.40
2019-04-11T02:17:10.521Z,0.40
2019-04-11T02:19:38.622Z,0.40
2019-04-11T02:22:11.621Z,0.50
2019-04-11T02:24:59.087Z,0.60
2019-04-11T02:27:29.026Z,0.57
2019-04-11T02:30:01.159Z,0.53
2019-04-11T02:32:29.473Z,0.47
2019-04-11T02:34:59.362Z,0.60
2019-04-11T02:37:29.230Z,0.40
2019-04-11T02:39:57.910Z,0.40
2019-04-11T02:42:27.704Z,0.60
2019-04-11T02:45:09.273Z,0.30
2019-04-11T02:47:31.225Z,0.30
2019-04-11T02:49:57.250Z,0.68
2019-04-11T02:52:27.557Z,0.50
2019-04-11T02:54:56.883Z,0.50
2019-04-11T02:57:25.873Z,0.40
2019-04-11T02:59:56.097Z,0.55
2019-04-11T03:02:26.045Z,0.50
2019-04-11T03:04:55.775Z,0.30
2019-04-11T03:07:24.787Z,0.50
2019-04-11T03:09:53.580Z,0.40
2019-04-11T03:12:24.012Z,0.30
2019-04-11T03:15:12.478Z,0.40
2019-04-11T03:17:27.501Z,0.50
2019-04-11T03:20:04.096Z,0.30
2019-04-11T03:22:22.605Z,0.40
2019-04-11T03:24:53.303Z,0.33
2019-04-11T03:27:22.583Z,0.40
2019-04-11T03:29:51.634Z,0.20
2019-04-11T03:37:42.967Z,0.37
2019-04-11T03:40:11.499Z,0.40
2019-04-11T03:42:38.298Z,0.40
2019-04-11T03:45:15.308Z,0.40
2019-04-11T03:47:34.857Z,0.60
2019-04-11T03:50:00.416Z,0.60
2019-04-11T03:52:23.744Z,0.40
2019-04-11T03:54:53.967Z,0.55
2019-04-11T03:57:23.606Z,0.50
2019-04-11T03:59:54.541Z,0.40
2019-04-11T04:02:24.662Z,0.50
2019-04-11T04:04:53.922Z,0.57
2019-04-11T04:07:23.468Z,0.50
2019-04-11T04:09:53.614Z,0.50
2019-04-11T04:12:22.725Z,0.40
2019-04-11T04:15:04.606Z,0.37
2019-04-11T04:17:36.475Z,0.57
2019-04-11T04:20:12.907Z,0.50
2019-04-11T04:22:57.686Z,0.47
2019-04-11T04:25:28.570Z,0.40
2019-04-11T04:27:56.935Z,0.40
2019-04-11T04:30:27.723Z,0.33
2019-04-11T04:32:56.919Z,0.33
2019-04-11T04:35:27.746Z,0.40
2019-04-11T04:37:56.961Z,0.30
2019-04-11T04:40:42.431Z,0.40
2019-04-11T04:42:58.169Z,0.40
2019-04-11T04:45:27.722Z,0.30
2019-04-11T04:48:02.655Z,0.28
2019-04-11T04:50:26.653Z,0.50
2019-04-11T04:52:55.905Z,0.30
2019-04-11T04:55:25.865Z,0.30
2019-04-11T04:57:55.462Z,0.30
2019-04-11T05:00:25.436Z,0.30
2019-04-11T05:02:54.878Z,0.50
2019-04-11T05:05:24.354Z,0.40
2019-04-11T05:07:54.002Z,0.50
2019-04-11T05:10:22.333Z,0.50
2019-04-11T05:12:51.498Z,0.50
2019-04-11T05:15:20.872Z,0.35
2019-04-11T05:17:51.109Z,0.62
2019-04-11T05:20:19.793Z,0.30
2019-04-11T05:22:49.238Z,0.50
2019-04-11T05:25:18.201Z,0.40
2019-04-11T05:27:47.500Z,0.30
2019-04-11T05:30:16.717Z,0.47
2019-04-11T05:32:45.243Z,0.40
2019-04-11T05:35:14.373Z,0.40
2019-04-11T05:37:42.992Z,0.55
2019-04-11T05:40:11.293Z,0.70
2019-04-11T05:42:39.646Z,0.35
2019-04-11T05:45:15.242Z,0.60
2019-04-11T05:47:37.606Z,0.68
2019-04-11T05:50:17.988Z,0.47
2019-04-11T05:52:46.251Z,0.60
2019-04-11T05:55:15.478Z,0.50
2019-04-11T05:57:45.100Z,0.50
2019-04-11T06:00:15.878Z,0.40
2019-04-11T06:05:19.329Z,0.57
2019-04-11T06:07:55.662Z,0.50
2019-04-11T06:10:24.111Z,0.40
2019-04-11T06:13:00.114Z,0.40
2019-04-11T06:15:29.860Z,0.40
2019-04-11T06:18:01.411Z,0.30
2019-04-11T06:20:31.300Z,0.28
2019-04-11T06:23:03.805Z,0.40
2019-04-11T06:25:49.315Z,0.40
2019-04-11T06:28:22.244Z,0.42
2019-04-11T06:30:52.719Z,0.30
2019-04-11T06:33:22.738Z,0.30
2019-04-11T06:35:55.284Z,0.30
2019-04-11T06:38:27.744Z,0.40
2019-04-11T06:40:57.785Z,0.35
2019-04-11T06:43:27.865Z,0.30
2019-04-11T06:46:03.524Z,0.30
2019-04-11T06:48:49.689Z,0.50
2019-04-11T06:51:22.418Z,0.47
2019-04-11T06:54:08.521Z,0.72
2019-04-11T06:56:41.295Z,0.55
2019-04-11T06:59:12.182Z,0.60
2019-04-11T07:04:11.424Z,0.95
2019-04-11T07:06:41.874Z,0.90
2019-04-11T07:09:16.707Z,0.95
2019-04-11T07:11:50.476Z,1.00
2019-04-11T07:14:37.577Z,1.20
2019-04-11T07:17:24.102Z,1.30
2019-04-11T07:20:10.915Z,1.45
2019-04-11T07:22:57.584Z,1.40
2019-04-11T07:25:27.316Z,0.93
2019-04-11T07:28:12.100Z,0.95
2019-04-11T07:31:00.239Z,0.90
2019-04-11T07:33:31.198Z,0.78
2019-04-11T07:36:18.422Z,0.80
2019-04-11T07:39:07.857Z,0.70
2019-04-11T07:41:38.873Z,0.50
2019-04-11T07:44:13.110Z,0.95
2019-04-11T07:46:45.682Z,0.70
2019-04-11T07:49:15.703Z,0.90
2019-04-11T07:51:45.512Z,0.70
2019-04-11T07:54:13.858Z,1.00
2019-04-11T07:56:44.260Z,0.78
2019-04-11T07:59:17.288Z,0.62
2019-04-11T08:01:47.012Z,0.70
2019-04-11T08:04:33.642Z,0.50
2019-04-11T08:07:19.857Z,0.50
2019-04-11T08:09:50.642Z,0.95
2019-04-11T08:15:02.013Z,0.50
2019-04-11T08:17:37.650Z,0.70
2019-04-11T08:20:21.410Z,0.40
2019-04-11T08:22:51.593Z,0.80
2019-04-11T08:25:39.919Z,0.68
2019-04-11T08:28:13.584Z,0.80
2019-04-11T08:30:44.744Z,0.70
2019-04-11T08:33:14.140Z,1.02
2019-04-11T08:36:01.696Z,1.45
2019-04-11T08:38:32.211Z,0.85
2019-04-11T08:41:05.492Z,0.80
2019-04-11T08:43:35.374Z,1.10
2019-04-11T08:46:11.390Z,1.05
2019-04-11T08:48:47.097Z,1.07
2019-04-11T08:51:16.965Z,1.20
2019-04-11T08:54:03.258Z,1.10
2019-04-11T08:56:31.382Z,0.85
2019-04-11T08:59:11.682Z,1.27
2019-04-11T09:01:40.832Z,1.10
2019-04-11T09:04:19.853Z,0.90
2019-04-11T09:06:49.157Z,0.90
2019-04-11T09:09:37.691Z,0.60
2019-04-11T09:12:07.186Z,1.07
2019-04-11T09:14:44.309Z,0.90
2019-04-11T09:17:21.422Z,0.70
2019-04-11T09:19:51.815Z,0.68
2019-04-11T09:22:29.227Z,0.80
2019-04-11T09:25:11.298Z,0.68
2019-04-11T09:27:57.567Z,0.88
2019-04-11T09:30:45.198Z,0.75
2019-04-11T09:33:32.894Z,0.90
2019-04-11T09:36:03.827Z,1.20
2019-04-11T09:38:34.692Z,1.70
2019-04-11T09:41:21.167Z,2.00
2019-04-11T09:43:50.464Z,1.67
2019-04-11T09:46:24.117Z,1.77
2019-04-11T09:49:10.619Z,1.57
2019-04-11T09:51:50.497Z,1.77
2019-04-11T09:54:23.929Z,1.62
2019-04-11T09:57:00.230Z,1.00
2019-04-11T09:59:31.461Z,1.40
2019-04-11T10:02:16.860Z,1.30
2019-04-11T10:04:48.017Z,1.10
2019-04-11T10:07:21.704Z,1.47
2019-04-11T10:10:04.554Z,1.25
2019-04-11T10:12:42.551Z,1.02
2019-04-11T10:15:11.490Z,1.27
2019-04-11T10:17:59.099Z,1.35
2019-04-11T10:20:27.199Z,1.20
2019-04-11T10:23:08.441Z,1.00
2019-04-11T10:25:39.352Z,1.30
2019-04-11T10:28:17.939Z,1.20
2019-04-11T10:30:57.634Z,1.42
2019-04-11T10:33:44.900Z,1.20
2019-04-11T10:36:21.100Z,1.30
2019-04-11T10:38:50.965Z,1.05
2019-04-11T10:41:30.644Z,1.05
2019-04-11T10:43:59.403Z,1.15
2019-04-11T10:46:32.076Z,0.88
2019-04-11T10:49:20.004Z,0.93
2019-04-11T10:51:56.077Z,1.17
2019-04-11T10:54:25.951Z,1.12
2019-04-11T10:57:13.840Z,0.75
2019-04-11T10:59:44.813Z,1.00
2019-04-11T11:02:21.013Z,1.20
2019-04-11T11:04:53.695Z,0.80
2019-04-11T11:07:21.924Z,0.80
2019-04-11T11:09:58.673Z,0.65
2019-04-11T11:12:29.603Z,0.65
2019-04-11T11:15:15.546Z,1.00
2019-04-11T11:18:32.084Z,1.00
2019-04-11T11:20:45.475Z,1.10
2019-04-11T11:23:22.582Z,1.20
2019-04-11T11:26:07.590Z,1.30
2019-04-11T11:28:43.270Z,1.50
2019-04-11T11:31:29.988Z,1.55
2019-04-11T11:33:58.803Z,1.02
2019-04-11T11:36:48.078Z,1.00
2019-04-11T11:39:19.237Z,1.32
2019-04-11T11:42:04.167Z,1.00
2019-04-11T11:44:53.269Z,0.90
2019-04-11T11:47:40.432Z,1.00
2019-04-11T11:50:18.129Z,0.85
2019-04-11T11:53:08.221Z,1.12
2019-04-11T11:55:41.230Z,1.20
2019-04-11T11:58:23.699Z,1.00
2019-04-11T12:00:55.558Z,1.25
2019-04-11T12:03:27.724Z,1.30
2019-04-11T12:05:56.686Z,1.40
2019-04-11T12:08:32.746Z,1.10
2019-04-11T12:11:03.877Z,1.15
2019-04-11T12:13:40.763Z,1.15
2019-04-11T12:16:19.271Z,0.88
2019-04-11T12:18:49.752Z,1.10
2019-04-11T12:21:28.181Z,0.95
2019-04-11T12:24:03.817Z,0.53
2019-04-11T12:26:30.489Z,0.60
2019-04-11T12:31:38.388Z,0.80
2019-04-11T12:34:08.180Z,0.45
2019-04-11T12:36:50.977Z,0.40
2019-04-11T12:39:19.176Z,0.80
2019-04-11T12:42:00.998Z,1.17
2019-04-11T12:44:30.867Z,0.88
2019-04-11T12:47:00.713Z,0.75
2019-04-11T12:49:36.169Z,0.90
2019-04-11T12:52:22.419Z,0.90
2019-04-11T12:55:01.329Z,0.90
2019-04-11T12:57:37.092Z,0.80
2019-04-11T13:00:10.689Z,1.02
2019-04-11T13:02:57.139Z,0.82
2019-04-11T13:05:26.387Z,0.62
2019-04-11T13:07:56.247Z,0.70
2019-04-11T13:10:24.599Z,0.80
2019-04-11T13:13:10.770Z,0.68
2019-04-11T13:15:43.196Z,1.10
2019-04-11T13:18:12.980Z,0.90
2019-04-11T13:20:48.909Z,0.80
2019-04-11T13:23:36.926Z,0.80
2019-04-11T13:26:23.221Z,0.60
2019-04-11T13:28:53.033Z,0.85
2019-04-11T13:31:39.499Z,1.00
2019-04-11T13:34:11.152Z,1.10
2019-04-11T13:36:57.285Z,0.90
2019-04-11T13:39:25.827Z,0.70
2019-04-11T13:41:58.430Z,1.10
2019-04-11T13:44:26.543Z,0.80
2019-04-11T13:46:58.959Z,0.80
2019-04-11T13:49:37.823Z,0.90
2019-04-11T13:52:10.509Z,0.60
2019-04-11T13:54:40.234Z,0.80
2019-04-11T13:57:28.291Z,0.50
2019-04-11T14:00:14.705Z,0.55
2019-04-11T14:03:02.304Z,0.50
2019-04-11T14:05:34.073Z,0.50
2019-04-11T14:08:03.801Z,0.70
2019-04-11T14:10:32.209Z,0.60
2019-04-11T14:13:03.383Z,0.70
2019-04-11T14:15:31.076Z,0.90
2019-04-11T14:18:17.309Z,1.10
2019-04-11T14:20:47.198Z,0.80
2019-04-11T14:25:57.956Z,0.80
2019-04-11T14:28:33.527Z,0.70
2019-04-11T14:31:03.324Z,0.70
2019-04-11T14:33:48.089Z,1.00
2019-04-11T14:36:32.559Z,0.90
2019-04-11T14:38:52.901Z,1.00
2019-04-11T14:41:41.560Z,1.10
2019-04-11T14:44:08.819Z,1.10
2019-04-11T14:46:57.080Z,1.10
2019-04-11T14:49:27.146Z,0.80
2019-04-11T14:51:59.580Z,0.57
2019-04-11T14:54:32.239Z,0.65
2019-04-11T14:57:22.808Z,0.62
2019-04-11T14:59:53.831Z,0.88
2019-04-11T15:02:27.550Z,0.70
2019-04-11T15:05:06.429Z,1.50
2019-04-11T15:07:36.190Z,1.42
2019-04-11T15:10:07.401Z,1.12
2019-04-11T15:12:41.584Z,0.70
2019-04-11T15:15:29.781Z,0.80
2019-04-11T15:17:59.558Z,0.60
2019-04-11T15:20:34.211Z,0.80
2019-04-11T15:23:11.171Z,1.05
2019-04-11T15:25:40.879Z,0.90
2019-04-11T15:28:22.678Z,0.80
2019-04-11T15:31:01.461Z,0.72
2019-04-11T15:33:32.328Z,0.80
2019-04-11T15:36:02.083Z,0.60
2019-04-11T15:38:48.060Z,0.62
2019-04-11T15:41:16.179Z,0.70
2019-04-11T15:43:57.947Z,0.53
2019-04-11T15:46:27.702Z,0.47
2019-04-11T15:49:20.488Z,0.70
2019-04-11T15:51:44.723Z,0.60
2019-04-11T15:54:14.463Z,0.50
2019-04-11T15:56:53.183Z,0.40
2019-04-11T15:59:37.912Z,0.40
2019-04-11T16:02:16.858Z,0.47
2019-04-11T16:04:46.570Z,0.30
2019-04-11T16:07:32.558Z,0.50
2019-04-11T16:10:02.110Z,0.50
2019-04-11T16:12:50.147Z,0.47
2019-04-11T16:15:18.898Z,0.45
2019-04-11T16:18:03.651Z,0.60
2019-04-11T16:20:31.724Z,0.50
2019-04-11T16:23:19.919Z,0.60
2019-04-11T16:25:49.619Z,0.50
2019-04-11T16:28:22.013Z,0.40
2019-04-11T16:30:51.902Z,0.57
2019-04-11T16:33:30.912Z,0.50
2019-04-11T16:36:06.664Z,0.40
2019-04-11T16:38:42.613Z,0.40
2019-04-11T16:41:29.202Z,0.30
2019-04-11T16:43:58.919Z,0.25
2019-04-11T16:46:31.587Z,0.40
2019-04-11T16:48:59.676Z,0.30
2019-04-11T16:51:31.205Z,0.30
2019-04-11T16:53:57.586Z,0.20
2019-04-11T16:56:25.665Z,0.40
2019-04-11T16:58:53.809Z,0.30
2019-04-11T17:01:23.167Z,0.40
2019-04-11T17:03:54.838Z,0.60
2019-04-11T17:06:29.389Z,0.35
2019-04-11T17:09:02.482Z,0.50
2019-04-11T17:11:30.992Z,0.30
2019-04-11T17:13:59.120Z,0.30
2019-04-11T17:16:29.890Z,0.30
2019-04-11T17:18:57.165Z,0.30
2019-04-11T17:21:25.531Z,0.35
2019-04-11T17:23:53.678Z,0.40
2019-04-11T17:26:23.212Z,0.23
2019-04-11T17:28:53.541Z,0.23
2019-04-11T17:31:25.713Z,0.30
2019-04-11T17:33:56.430Z,0.23
2019-04-11T17:36:22.775Z,0.30
2019-04-11T17:38:50.957Z,0.30
2019-04-11T17:41:19.410Z,0.30
2019-04-11T17:43:51.444Z,0.40
2019-04-11T17:46:19.414Z,0.40
2019-04-11T17:48:50.323Z,0.20
2019-04-11T17:51:19.425Z,0.30
2019-04-11T17:53:47.596Z,0.17
2019-04-11T17:56:15.727Z,0.28
2019-04-11T17:58:43.942Z,0.30
2019-04-11T18:01:12.132Z,0.30
2019-04-11T18:03:42.113Z,0.30
2019-04-11T18:06:10.452Z,0.20
2019-04-11T18:08:38.570Z,0.30
2019-04-11T18:11:06.734Z,0.40
2019-04-11T18:13:34.884Z,0.20
2019-04-11T18:16:04.237Z,0.30
2019-04-11T18:18:34.878Z,0.30
2019-04-11T18:21:02.199Z,0.30
2019-04-11T18:23:30.447Z,0.30
2019-04-11T18:25:58.549Z,0.45
2019-04-11T18:28:26.713Z,0.20
2019-04-11T18:30:55.137Z,0.40
2019-04-11T18:33:23.265Z,0.40
2019-04-11T18:35:51.367Z,0.30
2019-04-11T18:38:19.531Z,0.30
2019-04-11T18:40:47.695Z,0.30
2019-04-11T18:43:16.363Z,0.33
2019-04-11T18:45:45.283Z,0.30
2019-04-11T18:48:13.402Z,0.50
2019-04-11T18:50:41.621Z,0.30
2019-04-11T18:53:09.970Z,0.20
2019-04-11T18:55:38.097Z,0.20
2019-04-11T18:58:06.255Z,0.30
2019-04-11T19:00:35.853Z,0.50
2019-04-11T19:03:04.708Z,0.50
2019-04-11T19:05:32.864Z,0.40
2019-04-11T19:08:01.043Z,0.40
2019-04-11T19:10:29.118Z,0.40
2019-04-11T19:12:57.367Z,0.28
2019-04-11T19:15:25.494Z,0.30
2019-04-11T19:18:05.791Z,0.40
2019-04-11T19:20:24.170Z,0.33
2019-04-11T19:22:52.350Z,0.30
2019-04-11T19:25:20.501Z,0.20
2019-04-11T19:27:53.304Z,0.30
2019-04-11T19:30:18.578Z,0.50
2019-04-11T19:32:46.717Z,0.40
2019-04-11T19:35:15.098Z,0.62
2019-04-11T19:37:43.311Z,0.30
2019-04-11T19:40:16.150Z,0.30
2019-04-11T19:42:41.895Z,0.30
2019-04-11T19:45:10.284Z,0.40
2019-04-11T19:47:38.925Z,0.45
2019-04-11T19:50:07.494Z,0.23
2019-04-11T19:52:45.333Z,0.30
2019-04-11T19:55:07.601Z,0.30
2019-04-11T19:57:35.826Z,0.20
2019-04-11T20:00:06.214Z,0.28
2019-04-11T20:02:34.481Z,0.28
2019-04-11T20:05:02.640Z,0.23
2019-04-11T20:07:30.874Z,0.25
2019-04-11T20:10:03.401Z,0.30
2019-04-11T20:12:33.113Z,0.30
2019-04-11T20:15:04.634Z,0.30
2019-04-11T20:17:43.483Z,0.40
2019-04-11T20:20:06.732Z,0.40
2019-04-11T20:22:32.224Z,0.30
2019-04-11T20:25:00.436Z,0.30
2019-04-11T20:27:28.573Z,0.20
2019-04-11T20:29:56.684Z,0.35
2019-04-11T20:32:24.750Z,0.30
2019-04-11T20:34:52.814Z,0.30
2019-04-11T20:37:20.923Z,0.30
2019-04-11T20:39:49.061Z,0.20
2019-04-11T20:42:17.403Z,0.30
2019-04-11T20:44:46.783Z,0.20
2019-04-11T20:47:16.843Z,0.40
2019-04-11T20:49:48.928Z,0.33
2019-04-11T20:52:17.081Z,0.30
2019-04-11T20:54:45.440Z,0.30
2019-04-11T20:57:24.957Z,0.20
2019-04-11T20:59:43.349Z,0.33
2019-04-11T21:02:11.506Z,0.30
2019-04-11T21:04:39.795Z,0.40
2019-04-11T21:07:08.376Z,0.35
2019-04-11T21:09:36.453Z,0.28
2019-04-11T21:12:04.928Z,0.40
2019-04-11T21:14:34.387Z,0.30
2019-04-11T21:17:02.522Z,0.30
2019-04-11T21:19:30.656Z,0.30
2019-04-11T21:21:58.737Z,0.25
2019-04-11T21:24:30.569Z,0.23
2019-04-11T21:26:59.163Z,0.28
2019-04-11T21:29:30.004Z,0.33
2019-04-11T21:32:00.915Z,0.30
2019-04-11T21:34:27.442Z,0.30
2019-04-11T21:36:55.594Z,0.28
2019-04-11T21:39:23.735Z,0.30
2019-04-11T21:41:51.816Z,0.28
2019-04-11T21:44:19.882Z,0.30
2019-04-11T21:46:49.273Z,0.30
2019-04-11T21:49:17.747Z,0.40
2019-04-11T21:51:45.831Z,0.20
2019-04-11T21:54:14.980Z,0.40
2019-04-11T21:56:43.857Z,0.30
2019-04-11T21:59:12.520Z,0.30
2019-04-11T22:01:41.919Z,0.23
2019-04-11T22:04:10.509Z,0.25
2019-04-11T22:06:38.901Z,0.30
2019-04-11T22:09:07.756Z,0.20
2019-04-11T22:11:38.441Z,0.42
2019-04-11T22:14:06.215Z,0.30
2019-04-11T22:16:34.415Z,0.30
2019-04-11T22:19:02.613Z,0.40
2019-04-11T22:21:30.698Z,0.30
2019-04-11T22:23:58.862Z,0.30
2019-04-11T22:26:28.040Z,0.30
2019-04-11T22:28:56.180Z,0.30
2019-04-11T22:31:25.828Z,0.37
2019-04-11T22:34:10.909Z,0.35
2019-04-11T22:36:39.305Z,0.40
2019-04-11T22:39:09.539Z,0.30
2019-04-11T22:41:37.749Z,0.30
2019-04-11T22:44:07.941Z,0.37
2019-04-11T22:46:37.726Z,0.40
2019-04-11T22:51:35.482Z,0.40
2019-04-11T22:54:04.048Z,0.30
2019-04-11T22:56:32.177Z,0.35
2019-04-11T22:59:00.340Z,0.40
2019-04-11T23:01:28.740Z,0.35
2019-04-11T23:04:02.985Z,0.57
2019-04-11T23:06:31.055Z,0.40
2019-04-11T23:08:59.129Z,0.40
2019-04-11T23:11:27.353Z,0.40
2019-04-11T23:13:55.473Z,0.30
2019-04-11T23:16:23.925Z,0.30
2019-04-11T23:18:51.999Z,0.40
2019-04-11T23:21:20.162Z,0.30
2019-04-11T23:23:48.285Z,0.40
2019-04-11T23:26:16.391Z,0.30
2019-04-11T23:28:46.779Z,0.50
2019-04-11T23:31:14.635Z,0.30
2019-04-11T23:33:42.718Z,0.30
2019-04-11T23:36:10.808Z,0.40
2019-04-11T23:38:38.916Z,0.35
2019-04-11T23:41:07.079Z,0.40
2019-04-11T23:43:35.153Z,0.40
2019-04-11T23:46:03.344Z,0.40
2019-04-11T23:48:31.855Z,0.30
2019-04-11T23:51:00.121Z,0.50
2019-04-11T23:53:29.173Z,0.50
2019-04-11T23:56:00.180Z,0.35
2019-04-11T23:58:31.894Z,0.30
